createdAt,value
2023-05-05T00:00:19.592Z,423.6154
2023-05-05T00:01:20.669Z,419.2308
2023-05-05T00:02:21.739Z,415.6923
2023-05-05T00:03:22.900Z,421.0769
2023-05-05T00:04:23.694Z,418.6154
2023-05-05T00:05:24.762Z,417.9231
2023-05-05T00:06:25.784Z,413.3846
2023-05-05T00:07:26.836Z,407.6923
2023-05-05T00:08:27.851Z,408.0000
2023-05-05T00:09:28.942Z,404.3846
2023-05-05T00:10:29.967Z,405.3077
2023-05-05T00:11:30.974Z,403.3077
2023-05-05T00:12:32.032Z,411.1538
2023-05-05T00:13:32.996Z,407.9231
2023-05-05T00:14:34.033Z,407.9231
2023-05-05T00:15:35.091Z,411.6154
2023-05-05T00:16:36.185Z,407.6154
2023-05-05T00:17:37.201Z,410.6154
2023-05-05T00:18:38.166Z,404.6923
2023-05-05T00:19:39.233Z,409.6923
2023-05-05T00:20:40.240Z,408.2308
2023-05-05T00:21:41.312Z,405.0000
2023-05-05T00:22:42.329Z,408.7692
2023-05-05T00:23:43.376Z,409.5385
2023-05-05T00:24:44.408Z,408.4615
2023-05-05T00:25:45.456Z,409.1538
2023-05-05T00:26:46.469Z,409.4615
2023-05-05T00:27:47.529Z,409.0769
2023-05-05T00:28:48.504Z,406.9231
2023-05-05T00:29:49.567Z,409.2308
2023-05-05T00:30:50.608Z,403.6154
2023-05-05T00:31:51.632Z,405.4615
2023-05-05T00:32:52.690Z,400.9231
2023-05-05T00:33:53.732Z,408.0000
2023-05-05T00:34:54.716Z,402.1538
2023-05-05T00:35:55.812Z,399.1538
2023-05-05T00:36:56.798Z,402.3846
2023-05-05T00:37:57.873Z,401.7692
2023-05-05T00:38:58.925Z,400.4615
2023-05-05T00:39:59.936Z,397.7692
2023-05-05T00:41:00.912Z,399.6154
2023-05-05T00:42:01.995Z,399.5385
2023-05-05T00:43:03.011Z,398.1538
2023-05-05T00:44:04.082Z,406.6154
2023-05-05T00:45:05.055Z,396.2308
2023-05-05T00:46:06.137Z,389.5385
2023-05-05T00:47:07.126Z,395.7692
2023-05-05T00:48:08.224Z,392.6923
2023-05-05T00:49:09.237Z,394.4615
2023-05-05T00:50:10.270Z,398.0769
2023-05-05T00:51:11.276Z,400.4615
2023-05-05T00:52:21.587Z,396.2727
2023-05-05T00:53:22.954Z,394.7143
2023-05-05T00:54:23.998Z,392.4615
2023-05-05T00:55:24.896Z,386.6154
2023-05-05T00:56:25.967Z,388.4615
2023-05-05T00:57:26.978Z,387.5385
2023-05-05T00:58:28.132Z,390.9231
2023-05-05T00:59:29.096Z,390.6923
2023-05-05T01:00:30.109Z,395.6923
2023-05-05T01:01:31.183Z,399.0000
2023-05-05T01:02:32.276Z,396.6154
2023-05-05T01:03:33.432Z,395.9231
2023-05-05T01:04:34.297Z,397.0769
2023-05-05T01:05:35.309Z,402.5385
2023-05-05T01:06:36.316Z,401.0769
2023-05-05T01:07:37.390Z,405.3077
2023-05-05T01:08:38.421Z,412.0769
2023-05-05T01:09:39.471Z,407.7692
2023-05-05T01:10:40.601Z,406.7692
2023-05-05T01:11:41.630Z,399.0000
2023-05-05T01:12:42.652Z,404.6923
2023-05-05T01:13:43.693Z,398.3077
2023-05-05T01:14:44.734Z,385.5385
2023-05-05T01:15:45.711Z,387.0769
2023-05-05T01:16:46.755Z,386.0769
2023-05-05T01:17:47.813Z,385.8462
2023-05-05T01:18:48.879Z,386.1538
2023-05-05T01:19:49.926Z,387.3077
2023-05-05T01:20:50.900Z,387.0769
2023-05-05T01:21:51.953Z,392.0000
2023-05-05T01:22:52.953Z,395.9231
2023-05-05T01:23:54.013Z,396.7692
2023-05-05T01:24:55.175Z,397.7692
2023-05-05T01:25:56.109Z,400.7692
2023-05-05T01:26:57.148Z,403.3846
2023-05-05T01:27:58.135Z,390.0769
2023-05-05T01:28:59.274Z,392.0000
2023-05-05T01:30:00.257Z,390.0000
2023-05-05T01:31:01.333Z,387.1538
2023-05-05T01:32:02.328Z,389.5385
2023-05-05T01:33:03.313Z,375.1538
2023-05-05T01:34:04.418Z,372.0769
2023-05-05T01:35:05.417Z,370.0000
2023-05-05T01:36:06.433Z,372.6154
2023-05-05T01:37:07.521Z,385.7692
2023-05-05T01:38:08.493Z,389.4615
2023-05-05T01:39:09.614Z,393.2308
2023-05-05T01:40:10.617Z,399.0769
2023-05-05T01:41:11.611Z,401.0000
2023-05-05T01:42:12.610Z,400.3846
2023-05-05T01:43:13.694Z,390.8462
2023-05-05T01:44:14.774Z,391.1538
2023-05-05T01:45:15.849Z,391.9231
2023-05-05T01:46:16.867Z,388.0769
2023-05-05T01:47:17.819Z,386.2308
2023-05-05T01:48:18.882Z,380.4615
2023-05-05T01:49:19.995Z,383.1538
2023-05-05T01:50:21.002Z,380.6154
2023-05-05T01:51:21.973Z,372.6154
2023-05-05T01:52:23.026Z,369.2308
2023-05-05T01:53:24.018Z,367.6154
2023-05-05T01:54:25.131Z,366.0000
2023-05-05T01:55:26.172Z,365.3846
2023-05-05T01:56:27.223Z,373.4615
2023-05-05T01:57:28.179Z,370.3077
2023-05-05T01:58:29.224Z,359.5385
2023-05-05T01:59:30.302Z,352.9231
2023-05-05T02:00:31.400Z,358.6154
2023-05-05T02:01:32.323Z,355.9231
2023-05-05T02:02:33.413Z,362.5385
2023-05-05T02:03:34.404Z,363.6923
2023-05-05T02:04:35.463Z,360.0769
2023-05-05T02:05:36.490Z,359.1538
2023-05-05T02:06:37.491Z,359.7692
2023-05-05T02:07:38.550Z,352.9231
2023-05-05T02:08:39.579Z,353.0000
2023-05-05T02:09:40.677Z,350.1538
2023-05-05T02:10:41.706Z,347.5385
2023-05-05T02:11:42.665Z,348.3077
2023-05-05T02:12:43.720Z,342.6923
2023-05-05T02:13:44.893Z,337.6923
2023-05-05T02:14:45.909Z,336.3077
2023-05-05T02:15:46.959Z,337.7692
2023-05-05T02:16:47.868Z,332.8462
2023-05-05T02:17:48.928Z,334.4615
2023-05-05T02:18:49.953Z,331.8462
2023-05-05T02:19:51.035Z,330.0769
2023-05-05T02:20:52.080Z,328.6154
2023-05-05T02:21:53.073Z,329.6923
2023-05-05T02:22:54.132Z,323.0000
2023-05-05T02:23:55.115Z,316.5385
2023-05-05T02:24:56.233Z,318.6154
2023-05-05T02:25:57.233Z,314.8462
2023-05-05T02:26:58.219Z,320.6923
2023-05-05T02:27:59.295Z,321.6923
2023-05-05T02:29:00.298Z,308.3846
2023-05-05T02:30:01.400Z,309.3077
2023-05-05T02:31:02.466Z,315.3077
2023-05-05T02:32:03.338Z,314.6923
2023-05-05T02:33:04.513Z,314.6923
2023-05-05T02:34:05.473Z,317.6154
2023-05-05T02:35:06.620Z,319.0000
2023-05-05T02:36:07.623Z,322.6154
2023-05-05T02:37:08.573Z,329.9231
2023-05-05T02:38:09.627Z,332.6923
2023-05-05T02:39:10.660Z,338.3077
2023-05-05T02:40:11.786Z,337.0000
2023-05-05T02:41:12.797Z,333.6923
2023-05-05T02:42:13.793Z,336.3077
2023-05-05T02:43:14.823Z,336.0000
2023-05-05T02:44:15.841Z,336.0769
2023-05-05T02:45:16.914Z,341.3077
2023-05-05T02:46:18.011Z,338.9231
2023-05-05T02:47:18.949Z,344.0769
2023-05-05T02:48:20.080Z,337.0769
2023-05-05T02:49:21.016Z,342.8462
2023-05-05T02:50:22.185Z,342.9231
2023-05-05T02:51:23.131Z,344.4615
2023-05-05T02:52:24.218Z,341.8462
2023-05-05T02:53:25.135Z,344.6154
2023-05-05T02:54:26.233Z,357.2308
2023-05-05T02:55:27.276Z,352.6154
2023-05-05T02:56:28.354Z,350.5385
2023-05-05T02:57:29.309Z,343.0000
2023-05-05T02:58:30.351Z,346.9231
2023-05-05T02:59:31.373Z,345.0769
2023-05-05T03:00:32.456Z,354.3077
2023-05-05T03:01:33.525Z,339.0769
2023-05-05T03:02:34.518Z,343.1538
2023-05-05T03:03:35.609Z,350.4615
2023-05-05T03:04:36.566Z,349.0000
2023-05-05T03:05:37.692Z,355.1538
2023-05-05T03:06:38.654Z,350.8462
2023-05-05T03:07:39.653Z,351.0769
2023-05-05T03:08:40.774Z,346.5385
2023-05-05T03:09:41.712Z,353.6154
2023-05-05T03:10:42.815Z,353.6923
2023-05-05T03:11:43.867Z,350.2308
2023-05-05T03:12:44.895Z,335.7692
2023-05-05T03:13:45.914Z,339.6923
2023-05-05T03:14:46.898Z,335.5385
2023-05-05T03:15:47.996Z,331.3077
2023-05-05T03:16:49.015Z,319.0769
2023-05-05T03:17:50.021Z,315.0769
2023-05-05T03:18:51.102Z,315.0769
2023-05-05T03:19:52.080Z,316.0769
2023-05-05T03:20:53.134Z,317.1538
2023-05-05T03:21:54.275Z,326.3846
2023-05-05T03:22:55.241Z,331.3077
2023-05-05T03:23:56.293Z,315.8462
2023-05-05T03:24:57.295Z,310.3846
2023-05-05T03:25:58.336Z,306.3846
2023-05-05T03:26:59.378Z,319.5385
2023-05-05T03:28:00.352Z,323.7692
2023-05-05T03:29:01.370Z,305.6154
2023-05-05T03:30:02.448Z,306.0000
2023-05-05T03:31:03.495Z,308.7692
2023-05-05T03:32:04.656Z,307.6923
2023-05-05T03:33:05.565Z,315.0769
2023-05-05T03:34:06.575Z,317.6154
2023-05-05T03:35:07.587Z,322.8462
2023-05-05T03:36:08.675Z,323.6154
2023-05-05T03:37:09.782Z,315.3077
2023-05-05T03:38:10.771Z,314.6923
2023-05-05T03:39:11.741Z,317.3846
2023-05-05T03:40:12.783Z,320.3846
2023-05-05T03:41:13.851Z,321.3846
2023-05-05T03:42:14.931Z,322.0000
2023-05-05T03:43:15.848Z,320.3077
2023-05-05T03:44:16.953Z,314.3846
2023-05-05T03:45:17.991Z,315.2308
2023-05-05T03:46:19.139Z,315.0769
2023-05-05T03:47:20.081Z,317.0769
2023-05-05T03:48:21.033Z,306.8462
2023-05-05T03:49:22.063Z,307.7692
2023-05-05T03:50:23.185Z,303.3846
2023-05-05T03:51:24.172Z,301.0000
2023-05-05T03:52:25.208Z,308.3077
2023-05-05T03:53:26.172Z,318.2308
2023-05-05T03:54:27.230Z,315.2308
2023-05-05T03:55:28.337Z,306.4615
2023-05-05T03:56:29.428Z,310.3077
2023-05-05T03:57:30.431Z,311.1538
2023-05-05T03:58:31.391Z,317.9231
2023-05-05T03:59:32.443Z,327.3077
2023-05-05T04:00:33.453Z,330.9231
2023-05-05T04:01:34.537Z,331.6923
2023-05-05T04:02:35.627Z,333.2308
2023-05-05T04:03:36.657Z,334.5385
2023-05-05T04:04:37.618Z,336.6923
2023-05-05T04:05:38.628Z,337.5385
2023-05-05T04:06:39.757Z,329.6923
2023-05-05T04:07:40.739Z,342.3846
2023-05-05T04:08:41.790Z,330.0769
2023-05-05T04:09:42.793Z,331.3846
2023-05-05T04:10:43.836Z,327.1538
2023-05-05T04:11:44.947Z,320.9231
2023-05-05T04:12:46.003Z,324.3846
2023-05-05T04:13:46.959Z,325.9231
2023-05-05T04:14:48.000Z,321.7692
2023-05-05T04:15:49.050Z,328.6923
2023-05-05T04:16:50.097Z,333.6923
2023-05-05T04:17:51.194Z,342.5385
2023-05-05T04:18:52.157Z,336.0000
2023-05-05T04:19:53.137Z,340.1538
2023-05-05T04:20:54.219Z,339.5385
2023-05-05T04:21:55.281Z,331.0000
2023-05-05T04:22:56.389Z,329.4615
2023-05-05T04:23:57.287Z,331.0000
2023-05-05T04:24:58.353Z,327.7692
2023-05-05T04:25:59.353Z,326.0769
2023-05-05T04:27:00.505Z,330.0769
2023-05-05T04:28:01.605Z,326.0000
2023-05-05T04:29:02.526Z,325.0769
2023-05-05T04:30:03.515Z,323.2308
2023-05-05T04:31:04.563Z,318.6154
2023-05-05T04:32:05.651Z,307.0000
2023-05-05T04:33:06.674Z,299.6923
2023-05-05T04:34:07.672Z,304.6923
2023-05-05T04:35:08.684Z,306.3077
2023-05-05T04:36:09.735Z,312.9231
2023-05-05T04:37:10.853Z,316.8462
2023-05-05T04:38:11.870Z,309.5385
2023-05-05T04:39:12.837Z,314.0000
2023-05-05T04:40:13.902Z,322.2308
2023-05-05T04:41:14.939Z,335.3077
2023-05-05T04:42:15.995Z,344.4615
2023-05-05T04:43:17.007Z,338.5385
2023-05-05T04:44:17.976Z,335.6923
2023-05-05T04:45:19.072Z,332.6923
2023-05-05T04:46:20.200Z,327.7692
2023-05-05T04:47:21.172Z,327.3846
2023-05-05T04:48:22.194Z,331.2308
2023-05-05T04:49:23.201Z,335.6154
2023-05-05T04:50:24.205Z,338.5385
2023-05-05T04:51:25.248Z,342.2308
2023-05-05T04:52:26.334Z,343.4615
2023-05-05T04:53:27.401Z,348.1538
2023-05-05T04:54:28.407Z,350.3846
2023-05-05T04:55:29.399Z,354.3077
2023-05-05T04:56:30.447Z,359.0000
2023-05-05T04:57:31.518Z,348.7692
2023-05-05T04:58:32.562Z,295.3846
2023-05-05T04:59:33.558Z,229.6154
2023-05-05T05:00:34.622Z,174.2308
2023-05-05T05:01:37.730Z,184.4615
2023-05-05T05:02:36.727Z,222.3077
2023-05-05T05:03:39.156Z,256.6154
2023-05-05T05:04:38.765Z,268.3846
2023-05-05T05:05:39.757Z,265.6154
2023-05-05T05:06:40.797Z,291.9231
2023-05-05T05:07:41.878Z,306.2308
2023-05-05T05:08:42.910Z,338.7692
2023-05-05T05:09:43.956Z,355.0000
2023-05-05T05:10:44.999Z,352.3077
2023-05-05T05:11:46.030Z,346.1538
2023-05-05T05:12:47.032Z,340.0769
2023-05-05T05:13:48.062Z,343.8462
2023-05-05T05:14:49.067Z,351.3077
2023-05-05T05:15:50.107Z,362.4615
2023-05-05T05:16:51.225Z,369.4615
2023-05-05T05:17:52.181Z,370.5385
2023-05-05T05:18:53.213Z,359.9231
2023-05-05T05:19:54.245Z,359.3077
2023-05-05T05:20:55.245Z,366.4615
2023-05-05T05:21:56.289Z,370.4615
2023-05-05T05:22:57.373Z,368.6154
2023-05-05T05:23:58.402Z,370.6923
2023-05-05T05:24:59.408Z,376.8462
2023-05-05T05:26:00.421Z,389.0000
2023-05-05T05:27:01.452Z,393.4615
2023-05-05T05:28:10.164Z,407.9231
2023-05-05T05:29:03.630Z,402.0000
2023-05-05T05:30:04.592Z,399.7692
2023-05-05T05:31:05.606Z,397.6923
2023-05-05T05:32:06.814Z,395.6154
2023-05-05T05:33:07.855Z,393.0769
2023-05-05T05:34:09.767Z,394.2308
2023-05-05T05:35:09.769Z,384.7692
2023-05-05T05:36:10.803Z,368.0769
2023-05-05T05:37:11.843Z,373.1538
2023-05-05T05:38:12.918Z,378.9231
2023-05-05T05:39:14.104Z,388.7692
2023-05-05T05:40:14.945Z,397.1538
2023-05-05T05:41:15.963Z,398.0000
2023-05-05T05:42:17.018Z,415.5385
2023-05-05T05:43:18.055Z,394.6154
2023-05-05T05:44:19.194Z,393.9231
2023-05-05T05:45:20.115Z,396.6923
2023-05-05T05:46:21.217Z,416.8462
2023-05-05T05:47:22.182Z,428.0769
2023-05-05T05:48:23.270Z,422.4615
2023-05-05T05:49:24.338Z,431.6923
2023-05-05T05:50:25.323Z,429.1538
2023-05-05T05:51:26.322Z,412.7692
2023-05-05T05:52:27.383Z,411.3077
2023-05-05T05:53:28.430Z,434.0000
2023-05-05T05:54:29.443Z,435.0000
2023-05-05T05:55:30.513Z,429.9231
2023-05-05T05:56:31.533Z,426.8462
2023-05-05T05:57:32.563Z,420.3077
2023-05-05T05:58:33.587Z,419.2308
2023-05-05T05:59:34.658Z,413.0769
2023-05-05T06:00:35.616Z,422.6923
2023-05-05T06:01:36.694Z,422.3077
2023-05-05T06:02:37.791Z,410.2308
2023-05-05T06:03:38.869Z,415.4615
2023-05-05T06:04:39.880Z,418.6154
2023-05-05T06:05:40.844Z,430.3077
2023-05-05T06:06:41.824Z,438.3077
2023-05-05T06:07:42.927Z,445.6154
2023-05-05T06:08:43.950Z,429.9231
2023-05-05T06:09:44.984Z,417.6154
2023-05-05T06:10:46.001Z,408.5385
2023-05-05T06:11:47.036Z,416.5385
2023-05-05T06:12:48.084Z,416.2308
2023-05-05T06:13:49.083Z,422.6154
2023-05-05T06:14:50.154Z,423.9231
2023-05-05T06:15:51.240Z,407.1538
2023-05-05T06:16:52.228Z,407.8462
2023-05-05T06:17:53.311Z,416.1538
2023-05-05T06:18:54.284Z,423.0000
2023-05-05T06:19:55.354Z,421.6154
2023-05-05T06:20:56.361Z,409.1538
2023-05-05T06:21:57.419Z,398.8462
2023-05-05T06:22:58.452Z,403.2308
2023-05-05T06:23:59.475Z,402.6154
2023-05-05T06:25:00.502Z,390.0000
2023-05-05T06:26:01.604Z,379.6923
2023-05-05T06:27:02.600Z,376.6923
2023-05-05T06:28:03.611Z,391.2308
2023-05-05T06:29:04.614Z,388.8462
2023-05-05T06:30:05.937Z,385.9231
2023-05-05T06:31:06.747Z,366.6154
2023-05-05T06:32:07.784Z,360.6154
2023-05-05T06:33:08.820Z,367.0000
2023-05-05T06:34:09.782Z,370.8462
2023-05-05T06:35:10.854Z,377.2308
2023-05-05T06:36:11.916Z,374.4615
2023-05-05T06:37:12.923Z,369.8462
2023-05-05T06:38:14.148Z,357.9231
2023-05-05T06:39:16.169Z,354.4615
2023-05-05T06:40:16.125Z,372.4615
2023-05-05T06:41:17.148Z,371.2308
2023-05-05T06:42:18.230Z,387.3077
2023-05-05T06:43:19.265Z,398.2308
2023-05-05T06:44:20.302Z,396.0000
2023-05-05T06:45:21.287Z,387.0769
2023-05-05T06:46:22.407Z,374.6923
2023-05-05T06:47:23.404Z,377.5385
2023-05-05T06:48:24.447Z,405.4615
2023-05-05T06:49:25.464Z,402.4615
2023-05-05T06:50:26.463Z,395.0769
2023-05-05T06:51:27.502Z,388.0000
2023-05-05T06:52:28.614Z,373.3846
2023-05-05T06:53:29.576Z,352.1538
2023-05-05T06:54:30.593Z,362.5385
2023-05-05T06:55:31.731Z,353.6923
2023-05-05T06:56:32.701Z,346.0769
2023-05-05T06:57:33.746Z,358.6923
2023-05-05T06:58:34.841Z,355.7692
2023-05-05T06:59:35.791Z,385.3846
2023-05-05T07:00:36.894Z,408.5385
2023-05-05T07:01:37.858Z,392.1538
2023-05-05T07:02:39.055Z,390.6154
2023-05-05T07:03:40.020Z,395.3846
2023-05-05T07:04:41.096Z,409.3846
2023-05-05T07:05:42.007Z,395.7692
2023-05-05T07:06:43.140Z,386.4615
2023-05-05T07:07:44.114Z,391.2308
2023-05-05T07:08:45.226Z,405.5385
2023-05-05T07:09:46.195Z,418.6923
2023-05-05T07:10:47.328Z,380.8462
2023-05-05T07:11:48.268Z,372.1538
2023-05-05T07:12:49.387Z,387.6154
2023-05-05T07:13:50.371Z,378.6923
2023-05-05T07:14:51.417Z,355.4615
2023-05-05T07:15:52.390Z,340.1538
2023-05-05T07:16:53.590Z,335.3077
2023-05-05T07:17:54.547Z,334.0000
2023-05-05T07:18:55.538Z,340.6923
2023-05-05T07:19:56.579Z,367.9231
2023-05-05T07:20:57.542Z,375.8462
2023-05-05T07:21:58.596Z,396.7692
2023-05-05T07:22:59.621Z,391.6923
2023-05-05T07:24:00.714Z,403.8462
2023-05-05T07:25:01.707Z,402.0000
2023-05-05T07:26:02.850Z,396.7692
2023-05-05T07:27:03.740Z,397.2308
2023-05-05T07:28:04.841Z,383.7692
2023-05-05T07:29:05.873Z,383.2308
2023-05-05T07:30:11.211Z,375.6923
2023-05-05T07:31:07.889Z,363.5385
2023-05-05T07:32:09.024Z,331.8462
2023-05-05T07:33:10.087Z,338.3077
2023-05-05T07:34:11.058Z,325.6923
2023-05-05T07:35:12.127Z,334.3846
2023-05-05T07:36:13.151Z,356.5385
2023-05-05T07:37:14.106Z,370.3846
2023-05-05T07:38:15.165Z,375.7692
2023-05-05T07:39:16.223Z,379.6923
2023-05-05T07:40:17.279Z,397.9231
2023-05-05T07:41:18.299Z,397.9231
2023-05-05T07:42:19.316Z,384.2308
2023-05-05T07:43:20.318Z,355.7692
2023-05-05T07:44:21.459Z,352.6923
2023-05-05T07:45:22.424Z,340.0000
2023-05-05T07:46:23.467Z,336.3077
2023-05-05T07:47:24.542Z,341.3846
2023-05-05T07:48:25.566Z,355.8462
2023-05-05T07:49:26.569Z,348.8462
2023-05-05T07:50:27.627Z,347.6154
2023-05-05T07:51:28.594Z,355.1538
2023-05-05T07:52:44.223Z,353.7692
2023-05-05T07:53:30.666Z,359.2308
2023-05-05T07:54:31.799Z,365.0769
2023-05-05T07:55:32.752Z,366.6923
2023-05-05T07:56:33.856Z,343.6154
2023-05-05T07:57:34.796Z,331.3846
2023-05-05T07:58:35.865Z,355.5385
2023-05-05T07:59:36.914Z,374.6923
2023-05-05T08:00:37.981Z,388.6154
2023-05-05T08:01:38.930Z,380.4615
2023-05-05T08:02:40.067Z,356.4615
2023-05-05T08:03:41.076Z,341.7692
2023-05-05T08:04:42.306Z,317.3077
2023-05-05T08:05:43.187Z,336.0000
2023-05-05T08:06:44.194Z,345.5385
2023-05-05T08:07:45.189Z,374.6923
2023-05-05T08:08:46.166Z,382.5385
2023-05-05T08:09:47.285Z,371.6154
2023-05-05T08:10:48.318Z,370.6923
2023-05-05T08:11:49.365Z,376.9231
2023-05-05T08:12:50.322Z,390.1538
2023-05-05T08:13:51.447Z,393.6154
2023-05-05T08:14:52.418Z,357.3846
2023-05-05T08:15:53.542Z,298.8462
2023-05-05T08:16:54.472Z,281.4615
2023-05-05T08:17:55.582Z,267.2308
2023-05-05T08:18:56.539Z,270.2308
2023-05-05T08:19:57.620Z,290.6923
2023-05-05T08:20:58.652Z,286.6923
2023-05-05T08:22:01.374Z,268.6923
2023-05-05T08:23:00.686Z,270.3077
2023-05-05T08:24:01.732Z,269.4615
2023-05-05T08:25:02.782Z,277.4615
2023-05-05T08:26:03.887Z,284.0000
2023-05-05T08:27:04.872Z,272.7692
2023-05-05T08:28:05.866Z,277.1538
2023-05-05T08:29:06.872Z,293.2308
2023-05-05T08:30:07.981Z,316.6154
2023-05-05T08:31:09.011Z,335.0000
2023-05-05T08:32:10.020Z,296.7692
2023-05-05T08:33:11.094Z,263.1538
2023-05-05T08:34:12.088Z,261.4615
2023-05-05T08:35:13.359Z,244.9231
2023-05-05T08:36:14.185Z,257.4615
2023-05-05T08:37:15.206Z,307.6154
2023-05-05T08:38:16.223Z,313.2308
2023-05-05T08:39:17.316Z,319.3077
2023-05-05T08:40:18.321Z,344.1538
2023-05-05T08:41:19.345Z,342.2308
2023-05-05T08:42:35.605Z,276.6154
2023-05-05T08:43:21.331Z,233.9231
2023-05-05T08:44:22.401Z,244.5385
2023-05-05T08:45:23.481Z,258.9231
2023-05-05T08:46:24.523Z,289.3846
2023-05-05T08:47:25.527Z,294.0000
2023-05-05T08:48:26.596Z,260.0000
2023-05-05T08:49:27.536Z,245.6154
2023-05-05T08:50:28.647Z,266.0769
2023-05-05T08:51:29.674Z,286.9231
2023-05-05T08:52:30.741Z,283.0769
2023-05-05T08:53:31.716Z,279.6923
2023-05-05T08:54:32.738Z,268.4615
2023-05-05T08:55:33.794Z,264.2308
2023-05-05T08:56:34.847Z,276.0769
2023-05-05T08:57:35.917Z,307.0769
2023-05-05T08:58:36.910Z,333.0000
2023-05-05T08:59:37.908Z,366.8462
2023-05-05T09:00:39.028Z,379.7692
2023-05-05T09:01:40.042Z,378.8462
2023-05-05T09:02:41.105Z,384.3846
2023-05-05T09:03:42.311Z,400.8462
2023-05-05T09:04:43.093Z,390.0769
2023-05-05T09:05:44.151Z,364.9231
2023-05-05T09:06:45.234Z,362.2308
2023-05-05T09:07:46.233Z,360.7692
2023-05-05T09:08:47.235Z,377.1538
2023-05-05T09:09:48.246Z,395.4615
2023-05-05T09:10:49.435Z,396.6923
2023-05-05T09:11:50.447Z,370.2308
2023-05-05T09:12:51.702Z,299.0000
2023-05-05T09:13:52.469Z,279.3077
2023-05-05T09:14:53.552Z,258.2308
2023-05-05T09:15:54.565Z,248.8462
2023-05-05T09:16:55.601Z,248.0769
2023-05-05T09:17:56.636Z,243.8462
2023-05-05T09:18:57.654Z,259.1538
2023-05-05T09:19:58.672Z,274.8462
2023-05-05T09:20:59.826Z,292.6923
2023-05-05T09:22:00.804Z,288.3846
2023-05-05T09:23:01.790Z,263.7692
2023-05-05T09:24:07.824Z,229.7692
2023-05-05T09:25:03.902Z,216.0769
2023-05-05T09:26:04.954Z,219.0769
2023-05-05T09:27:05.976Z,232.7692
2023-05-05T09:28:07.008Z,252.7692
2023-05-05T09:29:08.006Z,267.4615
2023-05-05T09:30:09.037Z,251.4615
2023-05-05T09:31:10.149Z,286.6923
2023-05-05T09:32:11.241Z,301.6923
2023-05-05T09:33:12.177Z,317.8462
2023-05-05T09:34:13.185Z,341.2308
2023-05-05T09:35:14.253Z,367.8462
2023-05-05T09:36:15.280Z,371.3846
2023-05-05T09:37:16.285Z,354.6154
2023-05-05T09:38:17.338Z,363.3077
2023-05-05T09:39:18.346Z,390.6154
2023-05-05T09:40:19.533Z,386.3077
2023-05-05T09:41:20.441Z,394.3846
2023-05-05T09:42:21.540Z,406.6154
2023-05-05T09:43:22.496Z,412.8462
2023-05-05T09:44:23.497Z,413.5385
2023-05-05T09:45:24.516Z,404.6923
2023-05-05T09:46:25.726Z,381.8462
2023-05-05T09:47:29.904Z,321.9231
2023-05-05T09:48:27.736Z,300.9231
2023-05-05T09:49:28.653Z,338.1538
2023-05-05T09:50:29.730Z,361.3077
2023-05-05T09:51:30.753Z,360.0769
2023-05-05T09:52:31.831Z,330.6154
2023-05-05T09:53:32.797Z,285.0000
2023-05-05T09:54:33.835Z,294.8462
2023-05-05T09:55:34.826Z,307.4615
2023-05-05T09:56:35.966Z,331.8462
2023-05-05T09:57:37.011Z,349.8462
2023-05-05T09:58:38.077Z,375.8462
2023-05-05T09:59:38.986Z,365.0000
2023-05-05T10:00:40.009Z,330.0000
2023-05-05T10:01:41.115Z,303.9231
2023-05-05T10:02:42.242Z,297.8462
2023-05-05T10:03:43.105Z,318.8462
2023-05-05T10:04:44.158Z,339.3077
2023-05-05T10:05:45.157Z,357.6923
2023-05-05T10:06:46.263Z,372.4615
2023-05-05T10:07:47.321Z,377.9231
2023-05-05T10:08:48.285Z,393.3846
2023-05-05T10:09:49.329Z,355.5385
2023-05-05T10:10:50.326Z,333.5385
2023-05-05T10:11:51.442Z,306.8462
2023-05-05T10:12:52.496Z,320.0000
2023-05-05T10:13:53.479Z,362.3077
2023-05-05T10:14:54.434Z,378.5385
2023-05-05T10:15:55.518Z,379.8462
2023-05-05T10:16:56.593Z,390.0000
2023-05-05T10:18:06.893Z,413.8462
2023-05-05T10:18:58.591Z,418.8462
2023-05-05T10:19:59.640Z,429.7692
2023-05-05T10:21:00.662Z,440.3077
2023-05-05T10:22:01.740Z,441.6154
2023-05-05T10:23:02.715Z,448.9231
2023-05-05T10:24:03.661Z,435.4615
2023-05-05T10:25:04.724Z,385.7692
2023-05-05T10:26:05.725Z,358.3846
2023-05-05T10:27:06.808Z,370.4615
2023-05-05T10:28:07.843Z,388.3846
2023-05-05T10:29:08.868Z,411.0769
2023-05-05T10:30:10.110Z,393.1538
2023-05-05T10:31:24.587Z,356.3846
2023-05-05T10:32:33.545Z,366.9231
2023-05-05T10:33:30.212Z,354.6154
2023-05-05T10:34:14.107Z,365.6154
2023-05-05T10:35:15.074Z,342.3846
2023-05-05T10:36:16.136Z,309.7692
2023-05-05T10:37:17.125Z,291.4615
2023-05-05T10:38:18.160Z,299.2308
2023-05-05T10:39:19.336Z,312.7692
2023-05-05T10:40:20.377Z,303.7692
2023-05-05T10:41:21.334Z,328.9231
2023-05-05T10:42:22.424Z,362.4615
2023-05-05T10:43:23.540Z,359.4615
2023-05-05T10:44:24.572Z,351.9231
2023-05-05T10:45:25.627Z,358.7692
2023-05-05T10:46:26.770Z,359.4615
2023-05-05T10:47:27.590Z,329.3077
2023-05-05T10:48:28.700Z,298.6923
2023-05-05T10:49:29.734Z,272.7692
2023-05-05T10:50:30.780Z,269.1538
2023-05-05T10:51:40.459Z,263.1538
2023-05-05T10:52:32.789Z,246.0769
2023-05-05T10:53:33.825Z,249.1538
2023-05-05T10:54:37.173Z,272.1538
2023-05-05T10:55:35.879Z,325.0000
2023-05-05T10:56:36.940Z,350.7692
2023-05-05T10:57:37.976Z,361.2308
2023-05-05T10:58:47.477Z,365.8462
2023-05-05T10:59:40.181Z,341.6154
2023-05-05T11:00:41.077Z,323.0000
2023-05-05T11:01:42.145Z,298.1538
2023-05-05T11:02:43.212Z,298.0769
2023-05-05T11:03:44.206Z,301.0000
2023-05-05T11:04:45.237Z,311.7692
2023-05-05T11:05:46.195Z,311.0000
2023-05-05T11:06:47.300Z,298.4615
2023-05-05T11:07:48.282Z,305.3077
2023-05-05T11:08:49.354Z,277.8462
2023-05-05T11:09:50.479Z,256.6154
2023-05-05T11:10:51.420Z,244.9231
2023-05-05T11:11:52.446Z,267.1538
2023-05-05T11:12:53.521Z,276.9231
2023-05-05T11:13:54.530Z,291.6923
2023-05-05T11:14:55.621Z,315.9231
2023-05-05T11:15:56.536Z,329.7692
2023-05-05T11:16:57.640Z,333.4615
2023-05-05T11:17:58.675Z,361.3846
2023-05-05T11:18:59.747Z,390.0000
2023-05-05T11:20:00.753Z,389.0769
2023-05-05T11:21:01.798Z,378.1538
2023-05-05T11:22:02.772Z,373.6923
2023-05-05T11:23:03.829Z,360.4615
2023-05-05T11:24:04.884Z,269.6923
2023-05-05T11:25:05.917Z,256.7692
2023-05-05T11:26:06.969Z,270.8462
2023-05-05T11:27:07.891Z,336.5385
2023-05-05T11:28:09.065Z,364.7692
2023-05-05T11:29:10.046Z,388.4615
2023-05-05T11:30:11.343Z,375.0769
2023-05-05T11:31:12.077Z,321.8462
2023-05-05T11:32:13.106Z,363.6154
2023-05-05T11:33:14.091Z,370.7692
2023-05-05T11:34:15.193Z,316.2308
2023-05-05T11:35:16.242Z,256.4615
2023-05-05T11:36:17.294Z,259.3846
2023-05-05T11:37:18.235Z,273.0769
2023-05-05T11:38:19.302Z,257.8462
2023-05-05T11:39:20.340Z,249.5385
2023-05-05T11:40:21.399Z,241.0000
2023-05-05T11:41:22.360Z,257.2308
2023-05-05T11:42:23.434Z,313.6154
2023-05-05T11:43:24.476Z,349.1538
2023-05-05T11:44:25.526Z,325.2308
2023-05-05T11:45:26.669Z,281.6154
2023-05-05T11:46:27.593Z,240.6923
2023-05-05T11:47:28.602Z,277.6154
2023-05-05T11:48:29.632Z,319.8462
2023-05-05T11:49:30.720Z,360.0769
2023-05-05T11:50:31.715Z,374.1538
2023-05-05T11:51:32.688Z,404.3077
2023-05-05T11:52:33.768Z,425.5385
2023-05-05T11:53:34.781Z,375.0000
2023-05-05T11:54:35.856Z,335.1538
2023-05-05T11:55:36.907Z,343.0769
2023-05-05T11:56:37.868Z,372.5385